Muenster, Germany

9:34 PM CET on November 26, 2014 (GMT +0100)
Munster-Osnabruck | Change Station
CLOSE
Current Station
Airport
Location: Muenster,
Elevation: 157 ft
Nearby Weather Stations

Elev 157 ft 52.13 °N, 7.70 °E | Updated 14 minutes ago

Mostly Cloudy
Mostly Cloudy
41 °F
Feels Like 36 °F
N
8
Wind Variable Wind from East

Today
High -- | Low -- °F
--% Chance of Precip.
Yesterday
High -- | Low -- °F
Precip. -- in
8:07 AM 4:24 PM
Waxing Crescent, 22% visible
Pressure 29.95 in
Visibility 6.2 miles
Clouds Few 2500 ft
Scattered Clouds 4000 ft
Mostly Cloudy 8000 ft
Windchill 36 °F
Dew Point 34 °F
Humidity 76%
Rainfall 0.00 in
Snow Depth Not available.
UV 0 out of 12
Pollen Not available.
Air Quality Not available.
Flu Activity Not available.
METAR EDDG 262020Z 10007KT 9999 FEW025 SCT040 BKN080 05/01 Q1014 NOSIG

More Conditions Fewer Conditions

Pressure 29.95 in
Visibility 6.2 miles
Clouds Few 2500 ft
Scattered Clouds 4000 ft
Mostly Cloudy 8000 ft
Windchill 36 °F
Dew Point 34 °F
Humidity 76%
Rainfall 0.00 in
Snow Depth Not available.
UV 0 out of 12
Pollen Not available.
Air Quality Not available.
Flu Activity Not available.
METAR EDDG 262020Z 10007KT 9999 FEW025 SCT040 BKN080 05/01 Q1014 NOSIG

More Conditions Fewer Conditions

10-Day Weather Forecast

Almanac

Astronomy

Nov. 26, 2014 Rise Set
Actual Time
Civil Twilight
Nautical Twilight
Astronomical Twilight
Moon
Length of Visible Light
Length of Day
Tomorrow will be .
, % of the Moon is Illuminated

Today's Extremes

Country Highs Country Lows

Community

WunderPhotos

Upload Photos

1,773,853 photos uploaded!

WunderBlogs® & News

Nearby

Air Quality

  Air Quality AQ Index Pollutant
Not available.

Snow Depth

Station Depth Elevation

Earthquake Activity

City Distance Mag. Time & Date
Minimum magnitude displayed is 2.5.

Coastal Water Temperatures

Place Temperature

Nearby Weather Stations